createdAt,value
2022-08-28T01:00:15.064Z,98051.13
2022-08-28T04:14:44.511Z,98070.81
2022-08-28T04:17:30.855Z,98074.03
2022-08-28T04:28:30.817Z,98081.31
2022-08-28T04:31:15.981Z,98080.28
2022-08-28T04:34:18.459Z,98075.16
2022-08-28T04:37:32.808Z,98067.75
2022-08-28T04:41:48.008Z,98096.06
2022-08-28T04:44:34.045Z,98101.63
2022-08-28T04:47:06.368Z,98086.94
2022-08-28T04:56:50.587Z,98086.63
2022-08-28T05:00:13.218Z,98105.81
2022-08-28T05:04:00.118Z,98091.44
2022-08-28T05:08:26.446Z,98093.91
2022-08-28T05:13:21.504Z,98106.03
2022-08-28T05:16:26.657Z,98095.09
2022-08-28T05:19:18.361Z,98085.75
2022-08-28T05:29:08.793Z,98117.47
2022-08-28T05:32:14.882Z,98116.50
2022-08-28T05:35:11.098Z,98102.16
2022-08-28T05:38:16.360Z,98117.38
2022-08-28T05:44:26.043Z,98127.50
2022-08-28T05:46:58.780Z,98114.47
2022-08-28T05:49:33.833Z,98127.31
2022-08-28T05:52:10.259Z,98129.97
2022-08-28T05:54:38.365Z,98139.63
2022-08-28T05:57:10.282Z,98131.59
2022-08-28T05:59:43.944Z,98126.59
2022-08-28T06:02:13.241Z,98143.34
2022-08-28T06:12:37.391Z,98130.44
2022-08-28T06:15:06.700Z,98152.63
2022-08-28T06:17:44.244Z,98131.56
2022-08-28T06:23:23.858Z,98141.25
2022-08-28T06:26:08.879Z,98135.06
2022-08-28T06:29:10.892Z,98155.09
2022-08-28T06:32:11.392Z,98149.00
2022-08-28T06:34:44.019Z,98149.34
2022-08-28T06:37:48.476Z,98139.19
2022-08-28T06:40:31.039Z,98160.09
2022-08-28T06:43:19.943Z,98137.41
2022-08-28T06:46:18.325Z,98146.53
2022-08-28T06:49:21.430Z,98154.31
2022-08-28T06:51:49.363Z,98156.41
2022-08-28T06:54:34.955Z,98167.66
2022-08-28T06:57:04.134Z,98159.31
2022-08-28T06:59:36.929Z,98165.81
2022-08-28T07:02:16.401Z,98167.16
2022-08-28T07:04:43.273Z,98171.94
2022-08-28T07:07:16.125Z,98172.75
2022-08-28T07:09:58.729Z,98173.25
2022-08-28T07:12:31.809Z,98171.03
2022-08-28T07:14:59.991Z,98168.59
2022-08-28T07:17:51.259Z,98177.56
2022-08-28T07:20:25.884Z,98164.56
2022-08-28T07:22:59.486Z,98182.50
2022-08-28T07:25:43.579Z,98184.13
2022-08-28T07:28:21.544Z,98175.50
2022-08-28T07:31:06.808Z,98179.25
2022-08-28T07:33:45.176Z,98192.59
2022-08-28T07:36:29.112Z,98179.56
2022-08-28T07:39:00.052Z,98190.81
2022-08-28T07:41:41.352Z,98200.16
2022-08-28T07:44:31.846Z,98186.28
2022-08-28T07:47:22.026Z,98172.75
2022-08-28T07:50:01.571Z,98185.31
2022-08-28T07:52:30.655Z,98187.72
2022-08-28T07:55:04.993Z,98189.91
2022-08-28T07:57:34.514Z,98199.53
2022-08-28T08:00:21.623Z,98190.97
2022-08-28T08:03:16.781Z,98201.13
2022-08-28T08:06:25.042Z,98202.19
2022-08-28T08:09:06.322Z,98200.38
2022-08-28T08:12:13.251Z,98213.06
2022-08-28T08:14:56.201Z,98202.19
2022-08-28T08:25:51.382Z,98195.25
2022-08-28T08:28:27.834Z,98199.03
2022-08-28T08:32:00.182Z,98208.38
2022-08-28T08:42:50.858Z,98226.44
2022-08-28T08:46:13.068Z,98228.25
2022-08-28T08:56:34.843Z,98220.31
2022-08-28T09:00:01.901Z,98218.13
2022-08-28T09:03:32.782Z,98222.28
2022-08-28T09:06:30.329Z,98241.78
2022-08-28T09:11:02.563Z,98223.09
2022-08-28T09:14:42.230Z,98243.97
2022-08-28T09:17:29.733Z,98232.75
2022-08-28T09:20:32.457Z,98235.06
2022-08-28T09:27:14.487Z,98243.47
2022-08-28T09:30:07.841Z,98226.97
2022-08-28T09:33:07.276Z,98241.38
2022-08-28T09:37:51.939Z,98232.09
2022-08-28T09:44:07.156Z,98235.78
2022-08-28T09:51:15.431Z,98241.44
2022-08-28T09:55:43.701Z,98235.38
2022-08-28T09:57:24.633Z,98232.41
2022-08-28T09:59:57.236Z,98229.44
2022-08-28T10:07:32.583Z,98234.69
2022-08-28T10:25:55.132Z,98245.28
2022-08-28T10:28:50.792Z,98245.16
2022-08-28T10:31:40.232Z,98244.16
2022-08-28T10:34:33.072Z,98241.44
2022-08-28T10:37:25.563Z,98228.22
2022-08-28T10:40:05.929Z,98238.75
2022-08-28T10:42:48.411Z,98248.72
2022-08-28T10:45:22.323Z,98242.09
2022-08-28T10:47:58.010Z,98235.88
2022-08-28T10:50:43.599Z,98252.69
2022-08-28T10:53:19.323Z,98224.09
2022-08-28T10:55:56.494Z,98238.41
2022-08-28T10:58:27.445Z,98235.06
2022-08-28T11:01:03.292Z,98233.22
2022-08-28T11:03:40.386Z,98231.09
2022-08-28T11:06:43.186Z,98239.88
2022-08-28T11:09:31.088Z,98243.75
2022-08-28T11:12:27.614Z,98247.16
2022-08-28T11:14:54.637Z,98241.88
2022-08-28T11:17:35.236Z,98244.03
2022-08-28T11:20:14.248Z,98247.97
2022-08-28T11:22:55.770Z,98246.09
2022-08-28T11:25:50.056Z,98248.94
2022-08-28T11:28:29.731Z,98254.13
2022-08-28T11:31:07.459Z,98250.47
2022-08-28T11:33:52.598Z,98238.66
2022-08-28T11:36:22.032Z,98253.09
2022-08-28T11:38:53.967Z,98253.59
2022-08-28T11:41:28.576Z,98244.53
2022-08-28T11:44:13.428Z,98255.00
2022-08-28T11:46:52.387Z,98233.16
2022-08-28T11:49:34.390Z,98257.50
2022-08-28T11:52:23.009Z,98248.00
2022-08-28T11:55:04.380Z,98242.53
2022-08-28T12:00:51.513Z,98253.69
2022-08-28T12:03:38.082Z,98248.69
2022-08-28T12:06:07.418Z,98243.72
2022-08-28T12:08:51.080Z,98245.88
2022-08-28T12:11:39.765Z,98251.88
2022-08-28T12:14:34.580Z,98251.22
2022-08-28T12:17:33.807Z,98237.31
2022-08-28T12:20:41.275Z,98229.47
2022-08-28T12:23:23.348Z,98239.38
2022-08-28T12:26:01.340Z,98234.06
2022-08-28T12:28:33.976Z,98232.56
2022-08-28T12:31:12.840Z,98241.34
2022-08-28T12:34:10.620Z,98226.72
2022-08-28T12:36:37.723Z,98220.19
2022-08-28T12:39:04.689Z,98228.06
2022-08-28T12:41:35.786Z,98229.94
2022-08-28T12:44:11.440Z,98226.00
2022-08-28T12:46:43.810Z,98214.47
2022-08-28T12:49:37.848Z,98219.41
2022-08-28T12:52:18.572Z,98207.59
2022-08-28T12:54:48.778Z,98225.53
2022-08-28T12:57:37.027Z,98208.59
2022-08-28T13:00:45.888Z,98201.22
2022-08-28T13:03:12.261Z,98206.06
2022-08-28T13:05:42.384Z,98204.34
2022-08-28T13:08:12.545Z,98208.63
2022-08-28T13:11:03.777Z,98212.03
2022-08-28T13:13:45.194Z,98203.06
2022-08-28T13:16:47.741Z,98225.28
2022-08-28T13:19:30.386Z,98213.75
2022-08-28T13:22:05.331Z,98200.03
2022-08-28T13:24:38.578Z,98210.22
2022-08-28T13:27:18.527Z,98190.56
2022-08-28T13:30:16.569Z,98204.69
2022-08-28T13:33:21.414Z,98201.13
2022-08-28T13:35:49.380Z,98203.78
2022-08-28T13:38:22.729Z,98199.69
2022-08-28T13:41:03.732Z,98199.94
2022-08-28T13:43:46.068Z,98205.00
2022-08-28T13:46:13.996Z,98203.00
2022-08-28T13:48:40.799Z,98204.59
2022-08-28T13:51:20.665Z,98194.38
2022-08-28T13:53:48.775Z,98209.97
2022-08-28T13:56:34.926Z,98203.88
2022-08-28T13:59:01.557Z,98206.50
2022-08-28T14:01:48.419Z,98214.16
2022-08-28T14:04:15.353Z,98206.91
2022-08-28T14:06:44.090Z,98195.25
2022-08-28T14:09:17.522Z,98213.97
2022-08-28T14:11:47.009Z,98197.44
2022-08-28T14:14:14.226Z,98210.38
2022-08-28T14:16:41.106Z,98202.38
2022-08-28T14:19:08.415Z,98206.50
2022-08-28T14:21:39.392Z,98195.63
2022-08-28T14:24:07.939Z,98215.44
2022-08-28T14:26:37.054Z,98211.84
2022-08-28T14:29:11.732Z,98193.53
2022-08-28T14:31:41.126Z,98201.50
2022-08-28T14:34:17.584Z,98210.50
2022-08-28T14:36:45.583Z,98203.53
2022-08-28T14:39:13.759Z,98208.97
2022-08-28T14:41:46.862Z,98202.66
2022-08-28T14:44:14.507Z,98206.66
2022-08-28T14:46:45.346Z,98196.72
2022-08-28T14:49:16.248Z,98210.56
2022-08-28T14:51:45.651Z,98211.28
2022-08-28T14:54:16.564Z,98213.19
2022-08-28T14:56:45.082Z,98206.16
2022-08-28T14:59:19.475Z,98204.78
2022-08-28T15:01:50.525Z,98200.63
2022-08-28T15:04:22.753Z,98193.09
2022-08-28T15:06:54.766Z,98192.59
2022-08-28T15:09:21.530Z,98193.69
2022-08-28T15:11:48.354Z,98184.09
2022-08-28T15:14:17.696Z,98190.91
2022-08-28T15:16:49.121Z,98189.16
2022-08-28T15:19:18.055Z,98192.97
2022-08-28T15:21:54.757Z,98185.38
2022-08-28T15:24:30.821Z,98179.53
2022-08-28T15:26:59.580Z,98195.47
2022-08-28T15:29:29.916Z,98188.47
2022-08-28T15:32:00.744Z,98188.25
2022-08-28T15:34:28.469Z,98172.00
2022-08-28T15:36:57.857Z,98188.91
2022-08-28T15:39:46.948Z,98183.75
2022-08-28T15:42:15.447Z,98179.66
2022-08-28T15:44:42.521Z,98187.31
2022-08-28T15:47:09.386Z,98185.78
2022-08-28T15:49:46.825Z,98180.91
2022-08-28T15:52:18.821Z,98177.56
2022-08-28T15:54:45.840Z,98184.16
2022-08-28T15:57:12.488Z,98181.91
2022-08-28T15:59:48.631Z,98176.13
2022-08-28T16:02:16.433Z,98171.44
2022-08-28T16:04:43.240Z,98173.16
2022-08-28T16:07:09.955Z,98182.94
2022-08-28T16:09:36.684Z,98182.34
2022-08-28T16:12:04.128Z,98183.88
2022-08-28T16:14:33.230Z,98186.34
2022-08-28T16:17:05.700Z,98189.84
2022-08-28T16:19:39.792Z,98182.44
2022-08-28T16:22:07.291Z,98187.22
2022-08-28T16:24:34.456Z,98190.97
2022-08-28T16:27:01.256Z,98190.47
2022-08-28T16:29:28.085Z,98185.25
2022-08-28T16:31:56.699Z,98184.22
2022-08-28T16:34:26.093Z,98175.66
2022-08-28T16:36:55.018Z,98178.84
2022-08-28T16:39:21.729Z,98173.66
2022-08-28T16:41:50.150Z,98175.47
2022-08-28T16:44:22.080Z,98166.03
2022-08-28T16:46:49.166Z,98175.13
2022-08-28T16:49:16.015Z,98184.03
2022-08-28T16:51:42.662Z,98185.56
2022-08-28T16:54:09.418Z,98182.75
2022-08-28T16:56:54.680Z,98177.69
2022-08-28T16:59:31.614Z,98176.66
2022-08-28T17:01:58.360Z,98183.84
2022-08-28T17:04:25.667Z,98175.06
2022-08-28T17:06:52.330Z,98190.63
2022-08-28T17:09:21.009Z,98179.47
2022-08-28T17:11:51.748Z,98179.50
2022-08-28T17:14:20.921Z,98175.75
2022-08-28T17:16:48.191Z,98177.91
2022-08-28T17:19:15.677Z,98178.50
2022-08-28T17:22:01.873Z,98188.16
2022-08-28T17:24:31.085Z,98186.53
2022-08-28T17:27:00.886Z,98186.88
2022-08-28T17:29:30.293Z,98179.31
2022-08-28T17:31:57.261Z,98183.09
2022-08-28T17:34:29.523Z,98175.97
2022-08-28T17:36:57.350Z,98177.59
2022-08-28T17:39:25.302Z,98182.25
2022-08-28T17:41:52.023Z,98192.94
2022-08-28T17:44:18.804Z,98193.47
2022-08-28T17:46:45.966Z,98191.38
2022-08-28T17:49:12.728Z,98181.19
2022-08-28T17:51:42.420Z,98191.91
2022-08-28T17:54:13.283Z,98195.69
2022-08-28T17:56:49.389Z,98197.00
2022-08-28T17:59:16.375Z,98194.91
2022-08-28T18:01:45.241Z,98194.94
2022-08-28T18:04:23.627Z,98203.22
2022-08-28T18:06:54.873Z,98191.56
2022-08-28T18:09:23.974Z,98204.94
2022-08-28T18:11:52.217Z,98214.06
2022-08-28T18:14:19.176Z,98216.25
2022-08-28T18:16:46.391Z,98189.63
2022-08-28T18:19:13.953Z,98213.63
2022-08-28T18:21:41.119Z,98203.22
2022-08-28T18:24:10.227Z,98211.53
2022-08-28T18:26:37.633Z,98212.84
2022-08-28T18:29:04.833Z,98227.56
2022-08-28T18:31:35.021Z,98214.22
2022-08-28T18:34:02.296Z,98216.91
2022-08-28T18:36:29.713Z,98219.28
2022-08-28T18:38:58.264Z,98217.97
2022-08-28T18:41:41.582Z,98225.97
2022-08-28T18:44:13.808Z,98225.19
2022-08-28T18:46:41.654Z,98229.19
2022-08-28T18:49:09.276Z,98239.88
2022-08-28T18:51:37.009Z,98240.41
2022-08-28T18:54:04.242Z,98230.50
2022-08-28T18:56:33.615Z,98247.34
2022-08-28T18:59:03.561Z,98252.13
2022-08-28T19:01:30.978Z,98244.13
2022-08-28T19:03:58.097Z,98241.94
2022-08-28T19:06:25.274Z,98245.66
2022-08-28T19:08:52.354Z,98257.13
2022-08-28T19:11:19.605Z,98261.41
2022-08-28T19:13:47.481Z,98263.03
2022-08-28T19:16:23.901Z,98253.44
2022-08-28T19:18:53.013Z,98256.63
2022-08-28T19:21:20.423Z,98269.94
2022-08-28T19:23:55.728Z,98272.09
2022-08-28T19:26:25.445Z,98278.75
2022-08-28T19:28:52.652Z,98272.88
2022-08-28T19:31:19.465Z,98272.88
2022-08-28T19:33:47.542Z,98271.00
2022-08-28T19:36:15.485Z,98289.38
2022-08-28T19:38:43.252Z,98276.53
2022-08-28T19:41:12.846Z,98283.72
2022-08-28T19:43:44.225Z,98287.97
2022-08-28T19:46:19.265Z,98284.22
2022-08-28T19:48:52.996Z,98289.03
2022-08-28T19:51:24.023Z,98294.34
2022-08-28T19:53:57.862Z,98309.28
2022-08-28T19:56:29.716Z,98304.47
2022-08-28T19:59:00.493Z,98309.50
2022-08-28T20:01:29.754Z,98305.75
2022-08-28T20:03:58.567Z,98312.13
2022-08-28T20:06:26.241Z,98306.22
2022-08-28T20:08:52.920Z,98313.06
2022-08-28T20:11:24.799Z,98323.25
2022-08-28T20:13:57.861Z,98324.75
2022-08-28T20:16:27.858Z,98323.69
2022-08-28T20:18:55.695Z,98328.97
2022-08-28T20:21:32.997Z,98347.66
2022-08-28T20:24:08.455Z,98347.63
2022-08-28T20:26:36.338Z,98342.75
2022-08-28T20:29:04.981Z,98339.00
2022-08-28T20:31:31.716Z,98336.00
2022-08-28T20:33:58.348Z,98333.53
2022-08-28T20:36:26.281Z,98340.75
2022-08-28T20:38:52.988Z,98329.00
2022-08-28T20:41:21.659Z,98345.59
2022-08-28T20:43:49.025Z,98344.22
2022-08-28T20:46:17.145Z,98333.28
2022-08-28T20:48:44.509Z,98326.75
2022-08-28T20:51:12.206Z,98341.19
2022-08-28T20:53:39.420Z,98324.06
2022-08-28T20:56:10.122Z,98341.41
2022-08-28T20:58:37.853Z,98327.06
2022-08-28T21:01:05.603Z,98340.50
2022-08-28T21:03:32.643Z,98339.94
2022-08-28T21:05:59.274Z,98338.34
2022-08-28T21:08:28.804Z,98341.34
2022-08-28T21:10:55.448Z,98333.03
2022-08-28T21:13:24.131Z,98336.69
2022-08-28T21:15:50.740Z,98337.66
2022-08-28T21:18:17.466Z,98345.06
2022-08-28T21:20:45.773Z,98353.16
2022-08-28T21:23:12.833Z,98359.19
2022-08-28T21:25:42.551Z,98344.34
2022-08-28T21:28:09.233Z,98343.03
2022-08-28T21:30:35.983Z,98352.00
2022-08-28T21:33:02.818Z,98353.88
2022-08-28T21:35:29.568Z,98354.66
2022-08-28T21:37:56.163Z,98359.09
2022-08-28T21:40:23.234Z,98360.22
2022-08-28T21:42:50.009Z,98347.91
2022-08-28T21:45:16.866Z,98356.88
2022-08-28T21:47:43.503Z,98361.72
2022-08-28T21:50:11.327Z,98362.66
2022-08-28T21:52:40.871Z,98357.19
2022-08-28T21:55:13.181Z,98373.28
2022-08-28T21:57:40.741Z,98376.00
2022-08-28T22:00:14.659Z,98362.16
2022-08-28T22:02:41.733Z,98364.88
2022-08-28T22:05:09.148Z,98369.69
2022-08-28T22:07:36.084Z,98370.66
2022-08-28T22:10:02.918Z,98366.41
2022-08-28T22:12:29.641Z,98356.22
2022-08-28T22:14:59.896Z,98365.59
2022-08-28T22:17:29.803Z,98375.50
2022-08-28T22:19:56.464Z,98374.31
2022-08-28T22:22:41.908Z,98360.22
2022-08-28T22:25:08.936Z,98374.38
2022-08-28T22:27:35.578Z,98382.59
2022-08-28T22:30:02.754Z,98382.25
2022-08-28T22:32:29.430Z,98375.91
2022-08-28T22:34:56.083Z,98380.88
2022-08-28T22:37:23.318Z,98378.44
2022-08-28T22:39:50.069Z,98384.72
2022-08-28T22:42:16.988Z,98386.56
2022-08-28T22:44:43.669Z,98392.44
2022-08-28T22:47:10.398Z,98388.97
2022-08-28T22:49:39.417Z,98381.59
2022-08-28T22:52:09.298Z,98397.25
2022-08-28T22:54:35.986Z,98391.75
2022-08-28T22:57:02.624Z,98399.28
2022-08-28T22:59:29.249Z,98387.41
2022-08-28T23:01:56.376Z,98400.59
2022-08-28T23:04:23.137Z,98406.75
2022-08-28T23:06:50.123Z,98400.44
2022-08-28T23:09:16.803Z,98397.53
2022-08-28T23:11:43.962Z,98395.56
2022-08-28T23:14:10.595Z,98396.22
2022-08-28T23:16:37.564Z,98392.47
2022-08-28T23:19:08.734Z,98381.56
2022-08-28T23:21:43.956Z,98387.72
2022-08-28T23:24:16.002Z,98382.97
2022-08-28T23:26:45.031Z,98385.13
2022-08-28T23:29:13.315Z,98387.22
2022-08-28T23:31:40.520Z,98389.63
2022-08-28T23:34:07.668Z,98382.38
2022-08-28T23:36:35.967Z,98390.38
2022-08-28T23:39:04.657Z,98390.41
2022-08-28T23:41:33.275Z,98392.06
2022-08-28T23:44:03.146Z,98386.50
2022-08-28T23:46:32.346Z,98393.91
2022-08-28T23:48:59.880Z,98389.41
2022-08-28T23:51:26.705Z,98384.91
2022-08-28T23:53:53.412Z,98381.88
2022-08-28T23:56:22.171Z,98382.56
2022-08-28T23:58:54.779Z,98381.69
